Time;durP1;ratioP1;P1;durP2;ratioP2;P2;SDS_P1;SDS_P2;PMS_P1;PMS_P2;Temp;Humidity;BMP_temperature;BMP_pressure;BME280_temperature;BME280_humidity;BME280_pressure;Samples;Min_cycle;Max_cycle;Signal;HPM_P1;HPM_P2
2022/03/06 00:00:35;;;;;;;6.13;5.63;;;2.20;99.90;;;;;;5989085;24;20450;-68
2022/03/06 00:03:04;;;;;;;6.97;6.37;;;2.20;99.90;;;;;;5989383;24;20435;-68
2022/03/06 00:05:32;;;;;;;6.20;5.60;;;2.20;99.90;;;;;;5978835;23;20473;-68
2022/03/06 00:08:02;;;;;;;8.50;6.57;;;2.20;99.90;;;;;;5988950;24;20418;-68
2022/03/06 00:10:30;;;;;;;7.37;6.70;;;2.20;99.90;;;;;;5989438;24;20485;-68
2022/03/06 00:13:00;;;;;;;7.60;6.90;;;2.20;99.90;;;;;;5989148;24;20445;-68
2022/03/06 00:15:28;;;;;;;8.30;7.40;;;2.20;99.90;;;;;;5980346;23;20541;-68
2022/03/06 00:17:56;;;;;;;7.33;6.67;;;2.20;99.90;;;;;;5989175;24;20433;-68
2022/03/06 00:20:24;;;;;;;7.27;6.67;;;2.20;99.90;;;;;;5988841;24;20423;-69
2022/03/06 00:22:52;;;;;;;7.27;6.57;;;2.20;99.90;;;;;;5989355;24;20566;-68
2022/03/06 00:25:20;;;;;;;8.80;7.90;;;2.20;99.90;;;;;;5980929;23;20558;-68
2022/03/06 00:27:48;;;;;;;9.03;7.60;;;2.20;99.90;;;;;;5989348;24;20411;-68
2022/03/06 00:30:17;;;;;;;10.33;6.93;;;2.20;99.90;;;;;;5988748;24;20411;-68
2022/03/06 00:32:45;;;;;;;8.23;7.40;;;2.20;99.90;;;;;;5988548;24;20445;-68
2022/03/06 00:35:13;;;;;;;7.40;6.60;;;2.20;99.90;;;;;;5981842;23;20460;-69
2022/03/06 00:37:41;;;;;;;8.33;7.27;;;2.20;99.90;;;;;;5988957;24;20430;-69
2022/03/06 00:40:10;;;;;;;9.00;7.80;;;2.20;99.90;;;;;;5988921;24;20446;-69
2022/03/06 00:42:38;;;;;;;9.77;7.20;;;2.20;99.90;;;;;;5988596;24;20466;-68
2022/03/06 00:45:07;;;;;;;7.30;6.60;;;2.20;99.90;;;;;;5982196;23;20450;-68
2022/03/06 00:47:36;;;;;;;8.30;7.50;;;2.20;99.90;;;;;;5988502;24;20415;-69
2022/03/06 00:50:04;;;;;;;8.50;7.60;;;2.20;99.90;;;;;;5988932;24;20414;-69
2022/03/06 00:52:32;;;;;;;7.17;6.50;;;2.20;99.90;;;;;;5980148;24;20449;-68
2022/03/06 00:55:00;;;;;;;6.70;6.17;;;2.10;99.90;;;;;;5977379;23;20477;-68
2022/03/06 00:57:28;;;;;;;9.70;7.13;;;2.10;99.90;;;;;;5988179;24;20529;-68
2022/03/06 00:59:55;;;;;;;7.30;6.60;;;2.10;99.90;;;;;;5987432;24;20445;-69
2022/03/06 01:02:23;;;;;;;8.13;7.23;;;2.10;99.90;;;;;;5987790;24;20467;-68
2022/03/06 01:04:53;;;;;;;6.80;6.20;;;2.10;99.90;;;;;;5982907;23;20477;-68
2022/03/06 01:07:21;;;;;;;8.00;6.43;;;2.00;99.90;;;;;;5987768;24;20407;-68
2022/03/06 01:09:49;;;;;;;7.57;6.83;;;2.00;99.90;;;;;;5988316;24;20418;-69
2022/03/06 01:12:16;;;;;;;7.00;6.30;;;2.00;99.90;;;;;;5987445;24;20438;-69
2022/03/06 01:14:44;;;;;;;7.40;6.43;;;2.00;99.90;;;;;;5983233;23;20462;-68
2022/03/06 01:17:12;;;;;;;7.27;6.47;;;1.90;99.90;;;;;;5988264;24;20415;-68
2022/03/06 01:19:40;;;;;;;7.43;6.73;;;1.90;99.90;;;;;;5976476;24;20513;-69
2022/03/06 01:22:09;;;;;;;7.20;6.50;;;1.90;99.90;;;;;;5988272;24;20414;-69
2022/03/06 01:24:37;;;;;;;7.57;6.87;;;1.90;99.90;;;;;;5983517;23;20484;-68
2022/03/06 01:27:05;;;;;;;6.87;6.20;;;1.90;99.90;;;;;;5978667;24;20467;-69
2022/03/06 01:29:33;;;;;;;8.80;6.80;;;1.90;99.90;;;;;;5978551;24;20450;-68
2022/03/06 01:32:00;;;;;;;7.87;6.80;;;1.80;99.90;;;;;;5987132;24;20463;-68
2022/03/06 01:34:28;;;;;;;6.63;5.90;;;1.80;99.90;;;;;;5983658;23;20595;-69
2022/03/06 01:36:56;;;;;;;7.33;6.60;;;1.80;99.90;;;;;;5987849;24;20399;-69
2022/03/06 01:39:25;;;;;;;6.67;5.80;;;1.80;99.90;;;;;;5988027;24;20442;-69
2022/03/06 01:41:53;;;;;;;7.10;6.50;;;1.70;99.90;;;;;;5987360;24;20418;-68
2022/03/06 01:44:21;;;;;;;6.60;6.00;;;1.80;99.90;;;;;;5983414;23;20457;-69
2022/03/06 01:46:49;;;;;;;5.83;5.40;;;1.70;99.90;;;;;;5988549;24;20505;-70
2022/03/06 01:49:18;;;;;;;6.50;5.77;;;1.70;99.90;;;;;;5987546;24;20438;-68
2022/03/06 01:51:46;;;;;;;8.20;6.33;;;1.70;99.90;;;;;;5987498;24;20969;-68
2022/03/06 01:54:14;;;;;;;10.27;6.27;;;1.70;99.90;;;;;;5984299;23;20542;-68
2022/03/06 01:56:44;;;;;;;6.57;5.90;;;1.70;99.90;;;;;;5988055;24;20455;-68
2022/03/06 01:59:12;;;;;;;6.33;5.83;;;1.70;99.90;;;;;;5987169;24;20438;-68
2022/03/06 02:01:40;;;;;;;6.97;6.27;;;1.70;99.90;;;;;;5987180;24;20414;-68
2022/03/06 02:04:08;;;;;;;7.50;6.27;;;1.70;99.90;;;;;;5984365;23;20469;-68
2022/03/06 02:06:37;;;;;;;7.40;5.63;;;1.70;99.90;;;;;;5987993;24;20493;-69
2022/03/06 02:09:05;;;;;;;6.87;6.13;;;1.70;99.90;;;;;;5987324;24;20453;-68
2022/03/06 02:11:33;;;;;;;7.47;5.60;;;1.70;99.90;;;;;;5978879;24;20458;-68
2022/03/06 02:14:03;;;;;;;7.40;5.90;;;1.70;99.90;;;;;;5985028;23;20510;-68
2022/03/06 02:16:33;;;;;;;6.03;5.27;;;1.80;99.90;;;;;;5988772;24;20417;-68
2022/03/06 02:19:01;;;;;;;6.27;5.67;;;1.70;99.90;;;;;;5987778;24;20438;-68
2022/03/06 02:21:30;;;;;;;6.30;5.70;;;1.70;99.90;;;;;;5988120;24;20443;-69
2022/03/06 02:23:59;;;;;;;6.20;5.70;;;1.70;99.90;;;;;;5984542;23;20458;-68
2022/03/06 02:26:27;;;;;;;5.50;4.93;;;1.70;99.90;;;;;;5987361;24;20415;-69
2022/03/06 02:28:55;;;;;;;5.87;5.37;;;1.70;99.90;;;;;;5988046;24;20438;-69
2022/03/06 02:31:23;;;;;;;5.87;5.37;;;1.60;99.90;;;;;;5987115;24;20418;-69
2022/03/06 02:33:51;;;;;;;5.70;5.27;;;1.60;99.90;;;;;;5977175;23;20501;-68
2022/03/06 02:36:19;;;;;;;5.53;4.90;;;1.60;99.90;;;;;;5987090;24;20466;-68
2022/03/06 02:38:50;;;;;;;5.10;4.70;;;1.60;99.90;;;;;;5987632;24;20496;-69
2022/03/06 02:41:20;;;;;;;5.10;4.60;;;1.60;99.90;;;;;;5953075;24;20464;-68
2022/03/06 02:43:48;;;;;;;6.40;5.90;;;1.60;99.90;;;;;;5985842;23;20434;-69
2022/03/06 02:46:16;;;;;;;5.60;5.10;;;1.60;99.90;;;;;;5987721;24;20931;-68
2022/03/06 02:48:44;;;;;;;6.60;4.37;;;1.60;99.90;;;;;;5987113;24;20438;-68
2022/03/06 02:51:12;;;;;;;5.23;4.70;;;1.60;99.90;;;;;;5986807;24;20434;-68
2022/03/06 02:53:40;;;;;;;4.60;4.20;;;1.60;99.90;;;;;;5986044;23;20526;-68
2022/03/06 02:56:09;;;;;;;4.83;4.43;;;1.60;99.90;;;;;;5987683;24;20498;-69
2022/03/06 02:58:39;;;;;;;4.73;4.30;;;1.60;99.90;;;;;;5988047;24;20402;-68
2022/03/06 03:01:08;;;;;;;4.70;4.13;;;1.60;99.90;;;;;;5987265;24;20473;-68
2022/03/06 03:03:39;;;;;;;4.30;3.90;;;1.60;99.90;;;;;;5986208;23;20466;-69
2022/03/06 03:06:07;;;;;;;6.00;4.83;;;1.60;99.90;;;;;;5987715;24;20422;-69
2022/03/06 03:08:35;;;;;;;5.17;4.67;;;1.60;99.90;;;;;;5987542;24;20489;-68
2022/03/06 03:11:03;;;;;;;4.90;4.40;;;1.60;99.90;;;;;;5987353;24;20712;-69
2022/03/06 03:13:32;;;;;;;5.80;5.20;;;1.60;99.90;;;;;;5987778;23;20441;-68
2022/03/06 03:16:00;;;;;;;5.30;4.50;;;1.60;99.90;;;;;;5989237;24;20410;-68
2022/03/06 03:18:29;;;;;;;5.33;4.53;;;1.60;99.90;;;;;;5988978;24;20466;-67
2022/03/06 03:20:56;;;;;;;5.83;4.77;;;1.60;99.90;;;;;;5987675;24;20492;-69
2022/03/06 03:23:24;;;;;;;4.90;4.40;;;1.60;99.90;;;;;;5989502;24;20446;-68
2022/03/06 03:25:52;;;;;;;5.87;4.37;;;1.60;99.90;;;;;;5978870;23;20453;-68
2022/03/06 03:28:20;;;;;;;4.90;4.40;;;1.60;99.90;;;;;;5989062;24;20579;-68
2022/03/06 03:30:49;;;;;;;5.33;4.87;;;1.60;99.90;;;;;;5988805;24;20415;-67
2022/03/06 03:33:17;;;;;;;5.60;4.80;;;1.60;99.90;;;;;;5988437;24;20450;-68
2022/03/06 03:35:45;;;;;;;4.93;4.53;;;1.60;99.90;;;;;;5979588;23;20454;-68
2022/03/06 03:38:13;;;;;;;4.43;4.03;;;1.60;99.90;;;;;;5990091;24;20414;-68
2022/03/06 03:40:40;;;;;;;3.93;3.53;;;1.60;99.90;;;;;;5988267;24;20475;-68
2022/03/06 03:43:08;;;;;;;4.37;4.07;;;1.60;99.90;;;;;;5988654;24;20439;-68
2022/03/06 03:45:37;;;;;;;4.70;4.03;;;1.60;99.90;;;;;;5954320;24;20493;-67
2022/03/06 03:48:06;;;;;;;4.40;4.00;;;1.60;99.90;;;;;;5988456;24;20415;-68
2022/03/06 03:50:34;;;;;;;4.20;3.73;;;1.60;99.90;;;;;;5987773;24;20513;-69
2022/03/06 03:53:02;;;;;;;4.90;3.87;;;1.60;99.90;;;;;;5988762;24;20445;-69
2022/03/06 03:55:30;;;;;;;4.10;3.70;;;1.60;99.90;;;;;;5979170;23;20457;-68
2022/03/06 03:57:58;;;;;;;4.33;3.90;;;1.60;99.90;;;;;;5989512;24;20414;-68
2022/03/06 04:00:26;;;;;;;4.30;3.93;;;1.70;99.90;;;;;;5987913;24;20451;-68
2022/03/06 04:02:54;;;;;;;8.40;3.80;;;1.70;99.90;;;;;;5988425;24;20436;-68
2022/03/06 04:05:24;;;;;;;3.93;3.43;;;1.60;99.90;;;;;;5980697;23;20463;-69
2022/03/06 04:07:53;;;;;;;3.53;3.23;;;1.70;99.90;;;;;;5988299;24;20410;-69
2022/03/06 04:10:22;;;;;;;3.80;3.40;;;1.70;99.90;;;;;;5987997;24;20446;-68
2022/03/06 04:12:50;;;;;;;4.13;3.20;;;1.70;99.90;;;;;;5979541;24;20474;-68
2022/03/06 04:15:17;;;;;;;3.37;3.10;;;1.70;99.90;;;;;;5981077;23;20487;-69
2022/03/06 04:17:45;;;;;;;5.40;3.50;;;1.70;99.90;;;;;;5988970;24;20447;-69
2022/03/06 04:20:13;;;;;;;5.77;3.40;;;1.70;99.90;;;;;;5989442;24;20422;-68
2022/03/06 04:22:42;;;;;;;5.03;3.60;;;1.70;99.90;;;;;;5988464;24;20430;-69
2022/03/06 04:25:12;;;;;;;3.50;3.20;;;1.70;99.90;;;;;;5982136;23;20474;-69
2022/03/06 04:27:40;;;;;;;3.80;3.50;;;1.70;99.90;;;;;;5989037;24;20545;-69
2022/03/06 04:30:09;;;;;;;3.50;3.20;;;1.70;99.90;;;;;;5988902;24;20434;-69
2022/03/06 04:32:37;;;;;;;3.60;3.30;;;1.70;99.90;;;;;;5988977;24;20438;-68
2022/03/06 04:35:06;;;;;;;3.47;3.03;;;1.70;99.90;;;;;;5981971;23;20456;-69
2022/03/06 04:37:35;;;;;;;4.30;3.40;;;1.70;99.90;;;;;;5989424;24;20417;-69
2022/03/06 04:40:04;;;;;;;3.40;3.10;;;1.70;99.90;;;;;;5988723;24;20502;-68
2022/03/06 04:42:32;;;;;;;3.10;2.90;;;1.70;99.90;;;;;;5979653;24;20506;-68
2022/03/06 04:45:00;;;;;;;3.33;3.03;;;1.70;99.90;;;;;;5978856;23;20454;-69
2022/03/06 04:47:28;;;;;;;3.43;3.13;;;1.70;99.90;;;;;;5989418;24;20650;-68
2022/03/06 04:49:58;;;;;;;4.07;3.70;;;1.70;99.90;;;;;;5988521;24;20438;-69
2022/03/06 04:52:26;;;;;;;4.10;3.80;;;1.70;99.90;;;;;;5988778;24;20430;-69
2022/03/06 04:54:54;;;;;;;5.00;3.17;;;1.70;99.90;;;;;;5982435;23;20450;-69
2022/03/06 04:57:23;;;;;;;3.27;2.93;;;1.70;99.90;;;;;;5988723;24;20407;-68
2022/03/06 04:59:51;;;;;;;3.80;3.37;;;1.80;99.90;;;;;;5977297;24;20426;-68
2022/03/06 05:02:19;;;;;;;3.53;3.23;;;1.80;99.90;;;;;;5987559;24;20482;-68
2022/03/06 05:04:47;;;;;;;4.13;3.30;;;1.80;99.90;;;;;;5982142;23;20465;-69
2022/03/06 05:07:15;;;;;;;3.93;3.60;;;1.80;99.90;;;;;;5988331;24;20534;-69
2022/03/06 05:09:43;;;;;;;4.00;3.20;;;1.80;99.90;;;;;;5953812;24;20478;-69
2022/03/06 05:12:11;;;;;;;3.60;3.30;;;1.80;99.90;;;;;;5987667;24;20497;-68
2022/03/06 05:14:40;;;;;;;3.60;3.30;;;1.80;99.90;;;;;;5983322;23;20510;-69
2022/03/06 05:17:08;;;;;;;4.27;3.97;;;1.80;99.90;;;;;;5987847;24;20499;-68
2022/03/06 05:19:36;;;;;;;3.80;3.50;;;1.80;99.90;;;;;;5976784;24;20454;-68
2022/03/06 05:22:12;;;;;;;3.50;3.20;;;1.80;99.90;;;;;;5987055;24;20415;-68
2022/03/06 05:24:42;;;;;;;4.00;3.60;;;1.80;99.90;;;;;;5984087;23;20458;-69
2022/03/06 05:27:10;;;;;;;3.73;3.37;;;1.80;99.90;;;;;;5953933;24;20482;-69
2022/03/06 05:29:39;;;;;;;3.73;3.43;;;1.80;99.90;;;;;;5988481;24;20445;-69
2022/03/06 05:32:08;;;;;;;3.73;3.37;;;1.80;99.90;;;;;;5987355;24;20477;-69
2022/03/06 05:34:36;;;;;;;4.23;3.20;;;1.80;99.90;;;;;;5975929;23;20458;-69
2022/03/06 05:37:04;;;;;;;3.77;3.47;;;1.80;99.90;;;;;;5988201;24;20493;-69
2022/03/06 05:39:33;;;;;;;4.57;4.17;;;1.80;99.90;;;;;;5953840;24;20430;-68
2022/03/06 05:42:01;;;;;;;3.63;3.33;;;1.80;99.90;;;;;;5988300;24;20411;-68
2022/03/06 05:44:30;;;;;;;3.70;3.30;;;1.80;99.90;;;;;;5982307;23;20457;-69
2022/03/06 05:47:00;;;;;;;3.77;3.47;;;1.80;99.90;;;;;;5988358;24;20458;-69
2022/03/06 05:49:30;;;;;;;3.87;3.57;;;1.80;99.90;;;;;;5987702;24;20450;-69
2022/03/06 05:51:58;;;;;;;3.47;3.13;;;1.80;99.90;;;;;;5953824;24;20430;-69
2022/03/06 05:54:26;;;;;;;3.97;3.60;;;1.80;99.90;;;;;;5984201;23;20485;-68
2022/03/06 05:56:58;;;;;;;4.07;3.63;;;1.80;99.90;;;;;;5988992;24;20449;-68
2022/03/06 05:59:26;;;;;;;3.27;3.07;;;1.80;99.90;;;;;;5988773;24;20467;-68
2022/03/06 06:01:54;;;;;;;3.90;3.60;;;1.80;99.90;;;;;;5988364;24;20494;-69
2022/03/06 06:04:23;;;;;;;4.37;3.97;;;1.80;99.90;;;;;;5984526;23;20457;-69
2022/03/06 06:06:51;;;;;;;5.43;4.10;;;1.80;99.90;;;;;;5988574;24;20441;-69
2022/03/06 06:09:19;;;;;;;4.47;3.70;;;1.80;99.90;;;;;;5988128;24;20422;-69
2022/03/06 06:11:47;;;;;;;3.77;3.47;;;1.80;99.90;;;;;;5989050;24;20438;-68
2022/03/06 06:14:15;;;;;;;4.23;3.93;;;1.90;99.90;;;;;;5984859;23;20458;-68
2022/03/06 06:16:47;;;;;;;6.50;3.90;;;1.90;99.90;;;;;;5988910;24;20418;-69
2022/03/06 06:19:15;;;;;;;4.03;3.63;;;1.90;99.90;;;;;;5987624;24;20414;-70
2022/03/06 06:21:44;;;;;;;3.60;3.30;;;1.90;99.90;;;;;;5979710;24;20457;-68
2022/03/06 06:24:13;;;;;;;5.07;3.90;;;1.90;99.90;;;;;;5986374;23;20456;-69
2022/03/06 06:26:41;;;;;;;3.93;3.63;;;1.90;99.90;;;;;;5989421;24;20418;-68
2022/03/06 06:29:09;;;;;;;4.20;3.50;;;2.00;99.90;;;;;;5989052;24;20422;-68
2022/03/06 06:31:37;;;;;;;4.10;3.70;;;2.00;99.90;;;;;;5991279;24;20442;-68
2022/03/06 06:34:09;;;;;;;4.17;3.77;;;2.00;99.90;;;;;;5986690;23;20779;-68
2022/03/06 06:36:37;;;;;;;4.13;3.83;;;2.00;99.90;;;;;;5988606;24;20415;-68
2022/03/06 06:39:09;;;;;;;4.13;3.73;;;2.00;99.90;;;;;;5987845;24;20799;-68
2022/03/06 06:41:37;;;;;;;4.77;3.97;;;2.00;99.90;;;;;;5978775;24;20450;-68
2022/03/06 06:44:05;;;;;;;3.97;3.67;;;2.00;99.90;;;;;;5984845;23;20458;-68
2022/03/06 06:46:34;;;;;;;4.77;4.37;;;2.10;99.90;;;;;;5989071;24;20688;-68
2022/03/06 06:49:03;;;;;;;4.37;4.07;;;2.10;99.90;;;;;;5955776;24;20434;-68
2022/03/06 06:51:31;;;;;;;3.70;3.40;;;2.10;99.90;;;;;;5989406;24;20438;-68
2022/03/06 06:53:58;;;;;;;4.40;4.00;;;2.00;99.90;;;;;;5987121;23;20457;-68
2022/03/06 06:56:28;;;;;;;4.47;4.07;;;2.10;99.90;;;;;;5989876;24;20443;-69
2022/03/06 06:58:55;;;;;;;4.57;4.17;;;2.10;99.90;;;;;;5989160;24;20411;-69
2022/03/06 07:01:24;;;;;;;4.60;4.20;;;2.10;99.90;;;;;;5989758;24;20410;-69
2022/03/06 07:03:52;;;;;;;4.93;4.07;;;2.10;99.90;;;;;;5972495;23;20445;-69
2022/03/06 07:06:20;;;;;;;4.10;3.80;;;2.10;99.90;;;;;;5969042;24;20429;-69
2022/03/06 07:08:48;;;;;;;4.70;4.30;;;2.10;99.90;;;;;;5989411;24;20415;-69
2022/03/06 07:11:22;;;;;;;4.40;4.00;;;2.10;99.90;;;;;;5988670;24;20489;-68
2022/03/06 07:13:51;;;;;;;4.47;4.07;;;2.20;99.90;;;;;;5987022;23;20529;-68
2022/03/06 07:16:19;;;;;;;4.57;4.20;;;2.20;99.90;;;;;;5988822;24;20438;-68
2022/03/06 07:18:47;;;;;;;4.60;4.23;;;2.20;99.90;;;;;;5989082;24;20411;-68
2022/03/06 07:21:15;;;;;;;4.63;4.23;;;2.20;99.90;;;;;;5988440;24;20410;-69
2022/03/06 07:23:43;;;;;;;4.10;3.80;;;2.30;99.90;;;;;;5987272;23;20438;-68
2022/03/06 07:26:11;;;;;;;4.43;4.03;;;2.20;99.90;;;;;;5980291;24;20489;-69
2022/03/06 07:28:39;;;;;;;4.80;4.40;;;2.20;99.90;;;;;;5988345;24;20489;-68
2022/03/06 07:31:09;;;;;;;6.13;3.63;;;2.30;99.90;;;;;;5988150;24;20461;-68
2022/03/06 07:33:37;;;;;;;5.07;3.80;;;2.30;99.90;;;;;;5986003;23;20442;-67
2022/03/06 07:36:06;;;;;;;4.33;4.03;;;2.30;99.90;;;;;;5989023;24;20474;-68
2022/03/06 07:38:33;;;;;;;4.03;3.73;;;2.30;99.90;;;;;;5988555;24;20410;-68
2022/03/06 07:41:01;;;;;;;3.93;3.63;;;2.40;99.90;;;;;;5988499;24;20438;-69
2022/03/06 07:43:29;;;;;;;4.20;3.70;;;2.40;99.90;;;;;;5988425;24;20462;-69
2022/03/06 07:45:57;;;;;;;4.10;3.80;;;2.50;99.90;;;;;;5954326;24;20435;-69
2022/03/06 07:48:26;;;;;;;4.53;3.57;;;2.50;99.90;;;;;;5989145;24;20446;-68
2022/03/06 07:50:54;;;;;;;4.20;3.80;;;2.50;99.90;;;;;;5987284;24;20471;-68
2022/03/06 07:53:22;;;;;;;6.47;6.00;;;2.60;99.90;;;;;;5985357;24;20445;-68
2022/03/06 07:55:50;;;;;;;3.43;3.23;;;2.60;99.90;;;;;;5978822;23;20457;-69
2022/03/06 07:58:18;;;;;;;5.70;4.10;;;2.70;99.90;;;;;;5987082;24;20414;-69
2022/03/06 08:00:46;;;;;;;4.20;3.80;;;2.70;99.90;;;;;;5989030;24;20446;-68
2022/03/06 08:03:15;;;;;;;4.63;3.73;;;2.80;99.90;;;;;;5988473;24;20466;-68
2022/03/06 08:05:45;;;;;;;4.53;4.10;;;2.80;99.90;;;;;;5980291;23;20446;-68
2022/03/06 08:08:13;;;;;;;5.50;3.60;;;2.80;99.90;;;;;;5988816;24;20415;-69
2022/03/06 08:10:41;;;;;;;3.70;3.40;;;2.80;99.90;;;;;;5989489;24;20419;-68
2022/03/06 08:13:09;;;;;;;4.03;3.60;;;2.80;99.90;;;;;;5984331;24;20474;-68
2022/03/06 08:15:37;;;;;;;3.80;3.50;;;2.80;99.90;;;;;;5974792;23;21023;-68
2022/03/06 08:18:05;;;;;;;3.90;3.57;;;2.70;99.90;;;;;;5987710;24;20423;-69
2022/03/06 08:20:33;;;;;;;5.33;4.00;;;2.70;99.90;;;;;;5977905;24;20422;-69
2022/03/06 08:23:02;;;;;;;3.90;3.40;;;2.70;99.90;;;;;;5988638;24;20436;-68
2022/03/06 08:25:30;;;;;;;4.30;3.90;;;2.70;99.90;;;;;;5979459;23;20446;-68
2022/03/06 08:27:58;;;;;;;4.00;3.70;;;2.70;99.90;;;;;;5989144;24;20489;-68
2022/03/06 08:30:26;;;;;;;4.17;3.77;;;2.70;99.90;;;;;;5989196;24;20411;-68
2022/03/06 08:32:54;;;;;;;3.53;3.23;;;2.70;99.90;;;;;;5986599;24;20557;-68
2022/03/06 08:35:22;;;;;;;3.20;2.90;;;2.80;99.90;;;;;;5978019;23;20702;-68
2022/03/06 08:37:49;;;;;;;4.20;3.00;;;2.80;99.90;;;;;;5988003;24;20410;-68
2022/03/06 08:40:20;;;;;;;2.20;2.10;;;2.90;99.90;;;;;;5984917;24;20419;-67
2022/03/06 08:42:48;;;;;;;3.33;3.13;;;2.90;99.90;;;;;;5984539;24;20438;-68
2022/03/06 08:45:16;;;;;;;2.47;2.37;;;3.00;99.90;;;;;;5976000;23;20482;-68
2022/03/06 08:47:44;;;;;;;2.87;2.67;;;3.00;99.90;;;;;;5980989;24;20422;-68
2022/03/06 08:50:12;;;;;;;2.80;2.50;;;3.10;99.90;;;;;;5984793;24;20419;-68
2022/03/06 08:52:40;;;;;;;2.70;2.60;;;3.20;99.90;;;;;;5987280;24;20820;-68
2022/03/06 08:55:10;;;;;;;2.83;2.63;;;3.20;99.90;;;;;;5980846;23;20506;-68
2022/03/06 08:57:39;;;;;;;2.50;2.30;;;3.20;99.90;;;;;;5985282;24;20414;-68
2022/03/06 09:00:08;;;;;;;2.90;2.70;;;3.20;99.90;;;;;;5986181;24;21016;-68
2022/03/06 09:02:36;;;;;;;3.07;2.87;;;3.30;99.90;;;;;;5986018;24;20570;-69
2022/03/06 09:05:05;;;;;;;2.40;2.30;;;3.40;99.90;;;;;;5979596;23;20458;-69
2022/03/06 09:07:33;;;;;;;3.27;2.70;;;3.40;99.90;;;;;;5976437;24;20451;-68
2022/03/06 09:10:01;;;;;;;2.90;2.57;;;3.30;99.90;;;;;;5985028;24;20493;-68
2022/03/06 09:12:39;;;;;;;3.73;2.30;;;3.40;99.90;;;;;;5988267;24;20445;-68
2022/03/06 09:15:08;;;;;;;3.40;3.10;;;3.40;99.90;;;;;;5980522;23;20451;-68
2022/03/06 09:17:36;;;;;;;2.93;2.70;;;3.50;99.90;;;;;;5988404;24;20445;-68
2022/03/06 09:20:04;;;;;;;3.13;2.80;;;3.50;99.90;;;;;;5985564;24;20422;-69
2022/03/06 09:22:32;;;;;;;3.50;3.20;;;3.60;99.90;;;;;;5976476;24;20431;-68
2022/03/06 09:25:00;;;;;;;3.93;3.60;;;3.70;99.90;;;;;;5980212;23;20518;-71
2022/03/06 09:27:28;;;;;;;3.83;3.13;;;3.80;99.90;;;;;;5988211;24;20446;-68
2022/03/06 09:29:57;;;;;;;3.30;3.00;;;3.70;99.90;;;;;;5987940;24;20450;-69
2022/03/06 09:32:25;;;;;;;3.80;3.50;;;3.80;99.90;;;;;;5974871;24;20522;-69
2022/03/06 09:34:53;;;;;;;3.40;3.10;;;3.90;99.90;;;;;;5980380;23;20458;-68
2022/03/06 09:37:20;;;;;;;4.83;3.87;;;4.00;99.90;;;;;;5986491;24;20450;-69
2022/03/06 09:39:48;;;;;;;3.97;3.60;;;4.00;99.90;;;;;;5986823;24;20505;-69
2022/03/06 09:42:17;;;;;;;4.40;3.43;;;4.10;99.90;;;;;;5985386;24;20492;-70
2022/03/06 09:44:47;;;;;;;3.60;3.33;;;4.20;99.90;;;;;;5981466;23;20786;-69
2022/03/06 09:47:17;;;;;;;3.63;3.33;;;4.30;99.90;;;;;;5972790;24;20437;-70
2022/03/06 09:49:47;;;;;;;3.60;3.17;;;4.40;99.90;;;;;;5982664;24;20478;-71
2022/03/06 09:52:15;;;;;;;3.93;3.63;;;4.50;99.90;;;;;;5982281;24;20441;-71
2022/03/06 09:54:44;;;;;;;3.90;3.60;;;4.60;99.90;;;;;;5973416;23;20442;-70
2022/03/06 09:57:11;;;;;;;4.87;3.70;;;4.70;99.90;;;;;;5984578;24;20418;-70
2022/03/06 09:59:39;;;;;;;3.83;3.50;;;4.80;99.90;;;;;;5985139;24;20430;-69
2022/03/06 10:02:07;;;;;;;3.90;3.60;;;4.90;99.90;;;;;;5984489;24;20415;-69
2022/03/06 10:04:37;;;;;;;4.47;4.07;;;5.00;99.90;;;;;;5975259;23;20461;-69
2022/03/06 10:07:07;;;;;;;4.00;3.70;;;4.90;99.90;;;;;;5986874;24;20415;-69
2022/03/06 10:09:43;;;;;;;4.17;3.87;;;4.90;99.90;;;;;;5984779;24;20418;-69
2022/03/06 10:12:22;;;;;;;4.67;4.27;;;4.90;99.90;;;;;;5986236;24;20442;-70
2022/03/06 10:14:51;;;;;;;4.43;4.03;;;4.90;99.90;;;;;;5978810;23;20453;-70
2022/03/06 10:17:21;;;;;;;4.57;4.07;;;4.80;99.90;;;;;;5986478;24;20421;-70
2022/03/06 10:19:54;;;;;;;4.00;3.70;;;4.90;99.90;;;;;;5985596;24;20421;-71
2022/03/06 10:22:22;;;;;;;4.27;3.97;;;4.90;99.90;;;;;;5986269;24;20494;-69
2022/03/06 10:24:52;;;;;;;3.60;3.30;;;5.00;99.90;;;;;;5977216;23;20514;-68
2022/03/06 10:27:45;;;;;;;3.70;3.40;;;5.10;99.90;;;;;;5983173;24;20497;-69
2022/03/06 10:30:24;;;;;;;4.07;3.67;;;5.20;99.90;;;;;;5986069;24;20497;-69
2022/03/06 10:32:52;;;;;;;3.67;3.37;;;5.30;99.90;;;;;;5984832;24;20540;-69
2022/03/06 10:35:36;;;;;;;4.30;3.90;;;5.30;99.90;;;;;;5980438;23;20454;-69
2022/03/06 10:38:19;;;;;;;3.97;3.67;;;5.40;99.90;;;;;;5986767;24;20414;-69
2022/03/06 10:40:47;;;;;;;3.77;3.43;;;5.40;99.90;;;;;;5984246;24;20478;-69
2022/03/06 10:43:21;;;;;;;4.30;3.50;;;5.50;99.90;;;;;;5987006;24;20434;-69
2022/03/06 10:45:51;;;;;;;4.00;3.70;;;5.50;99.90;;;;;;5977336;23;20517;-69
2022/03/06 10:48:19;;;;;;;4.10;3.80;;;5.50;99.90;;;;;;5985606;24;20411;-69
2022/03/06 10:50:48;;;;;;;3.63;3.33;;;5.50;99.90;;;;;;5987913;24;20429;-68
2022/03/06 10:53:21;;;;;;;3.80;3.50;;;5.70;99.90;;;;;;5985646;24;20438;-69
2022/03/06 10:55:49;;;;;;;3.57;3.27;;;5.80;99.90;;;;;;5977777;23;20458;-68
2022/03/06 10:58:18;;;;;;;3.77;3.47;;;6.00;99.90;;;;;;5986205;24;20420;-69
2022/03/06 11:00:47;;;;;;;3.40;3.10;;;6.10;99.90;;;;;;5986560;24;20418;-70
2022/03/06 11:03:18;;;;;;;3.70;3.40;;;6.00;99.90;;;;;;5983867;24;20426;-69
2022/03/06 11:05:48;;;;;;;3.60;3.30;;;6.10;99.90;;;;;;5974352;23;20541;-69
2022/03/06 11:08:18;;;;;;;3.80;3.50;;;6.10;99.90;;;;;;5984292;24;20420;-69
2022/03/06 11:10:46;;;;;;;3.63;3.43;;;6.10;99.90;;;;;;5985415;24;20418;-69
2022/03/06 11:13:15;;;;;;;3.70;3.40;;;6.10;99.90;;;;;;5974594;24;20450;-69
2022/03/06 11:15:43;;;;;;;4.40;4.10;;;6.00;99.90;;;;;;5975189;23;20485;-69
2022/03/06 11:18:12;;;;;;;3.70;3.40;;;5.90;99.90;;;;;;5984876;24;20417;-69
2022/03/06 11:20:41;;;;;;;4.40;4.00;;;5.90;99.90;;;;;;5984470;24;20418;-69
2022/03/06 11:23:25;;;;;;;3.77;3.50;;;6.00;99.90;;;;;;5986449;24;20430;-69
2022/03/06 11:26:14;;;;;;;3.87;3.53;;;6.10;99.90;;;;;;5974637;23;20460;-69
2022/03/06 11:28:59;;;;;;;4.13;3.73;;;6.30;99.90;;;;;;5986452;24;20425;-69
2022/03/06 11:31:30;;;;;;;4.20;3.77;;;6.50;99.90;;;;;;5985104;24;20442;-67
2022/03/06 11:34:03;;;;;;;3.57;3.13;;;6.80;99.90;;;;;;5982519;23;20446;-67
2022/03/06 11:36:32;;;;;;;3.87;3.50;;;7.10;99.90;;;;;;5972961;24;20521;-67
2022/03/06 11:39:05;;;;;;;3.67;3.47;;;7.20;99.90;;;;;;5980733;24;20410;-67
2022/03/06 11:41:37;;;;;;;4.40;4.00;;;7.40;99.90;;;;;;5973566;24;20430;-69
2022/03/06 11:44:32;;;;;;;4.73;4.20;;;7.50;99.90;;;;;;5978749;23;20582;-68
2022/03/06 11:47:00;;;;;;;6.77;4.50;;;7.50;99.90;;;;;;5986772;24;20422;-68
2022/03/06 11:49:34;;;;;;;5.13;4.63;;;7.40;99.90;;;;;;5980622;24;20421;-68
2022/03/06 11:52:02;;;;;;;4.40;4.10;;;7.50;99.90;;;;;;5986812;24;20421;-68
2022/03/06 11:54:43;;;;;;;4.57;4.13;;;7.60;99.90;;;;;;5952053;24;20450;-67
2022/03/06 11:57:11;;;;;;;4.67;3.57;;;7.70;99.90;;;;;;5986366;24;20410;-68
2022/03/06 11:59:46;;;;;;;4.57;4.27;;;7.60;99.90;;;;;;5988183;24;20415;-68
2022/03/06 12:02:19;;;;;;;8.00;3.77;;;7.50;99.90;;;;;;5985061;24;20455;-67
2022/03/06 12:04:54;;;;;;;4.93;4.20;;;7.40;99.90;;;;;;5982755;23;20532;-68
2022/03/06 12:07:22;;;;;;;4.90;4.50;;;7.30;99.90;;;;;;5987666;24;20445;-68
2022/03/06 12:09:53;;;;;;;4.90;4.50;;;7.20;99.90;;;;;;5988069;24;20484;-68
2022/03/06 12:12:22;;;;;;;4.97;4.40;;;7.10;99.90;;;;;;5987086;24;20435;-68
2022/03/06 12:14:53;;;;;;;4.80;4.40;;;7.00;99.90;;;;;;5980247;23;20454;-68
2022/03/06 12:17:43;;;;;;;5.20;4.80;;;7.00;99.90;;;;;;5952170;24;20427;-67
2022/03/06 12:20:23;;;;;;;4.53;4.23;;;6.90;99.90;;;;;;5984561;24;20446;-68
2022/03/06 12:22:54;;;;;;;5.53;5.03;;;6.90;99.90;;;;;;5985146;24;20434;-67
2022/03/06 12:25:29;;;;;;;4.60;4.20;;;6.80;99.90;;;;;;5976906;23;20529;-67
2022/03/06 12:28:26;;;;;;;4.93;4.43;;;6.90;99.90;;;;;;5986473;24;20466;-67
2022/03/06 12:30:56;;;;;;;4.93;4.53;;;7.30;99.90;;;;;;5987933;24;20457;-68
2022/03/06 12:33:42;;;;;;;4.87;4.57;;;7.70;99.90;;;;;;5976314;24;20462;-68
2022/03/06 12:36:13;;;;;;;4.80;4.30;;;7.80;99.90;;;;;;5975836;24;20441;-67
2022/03/06 12:38:41;;;;;;;5.07;4.63;;;8.40;99.90;;;;;;5952661;24;20509;-68
2022/03/06 12:41:11;;;;;;;4.70;4.30;;;8.90;99.90;;;;;;5986011;24;20542;-68
2022/03/06 12:43:46;;;;;;;4.70;4.30;;;10.20;99.90;;;;;;5984305;23;20433;-68
2022/03/06 12:46:16;;;;;;;4.00;3.70;;;10.80;99.90;;;;;;5985786;24;20406;-68
2022/03/06 12:48:48;;;;;;;4.83;4.43;;;10.90;99.90;;;;;;5985957;24;20489;-68
2022/03/06 12:51:33;;;;;;;4.87;4.47;;;10.50;99.90;;;;;;5986110;24;20745;-68
2022/03/06 12:54:01;;;;;;;5.03;4.63;;;9.90;99.90;;;;;;5984790;23;20456;-68
2022/03/06 12:56:38;;;;;;;5.27;4.80;;;9.50;99.90;;;;;;5987548;24;20458;-68
2022/03/06 12:59:15;;;;;;;6.13;5.00;;;9.20;99.90;;;;;;5987279;24;20414;-68
2022/03/06 13:01:44;;;;;;;5.30;4.73;;;9.10;99.90;;;;;;5987921;24;20455;-68
2022/03/06 13:04:13;;;;;;;5.03;4.63;;;9.10;99.90;;;;;;5981597;23;20450;-67
2022/03/06 13:06:41;;;;;;;5.37;4.87;;;9.20;99.90;;;;;;5986762;24;20410;-67
2022/03/06 13:09:18;;;;;;;5.03;4.53;;;9.00;99.90;;;;;;5987071;24;20422;-67